sensor_id;sensor_type;location;lat;lon;timestamp;P1;durP1;ratioP1;P2;durP2;ratioP2
74158;SDS011;62511;47.970;11.774;2024-02-28T00:02:10;14.32;;;6.60;;
74158;SDS011;62511;47.970;11.774;2024-02-28T00:04:36;13.88;;;6.45;;
74158;SDS011;62511;47.970;11.774;2024-02-28T00:07:02;14.48;;;7.35;;
74158;SDS011;62511;47.970;11.774;2024-02-28T00:09:28;11.30;;;7.03;;
74158;SDS011;62511;47.970;11.774;2024-02-28T00:11:54;12.90;;;6.63;;
74158;SDS011;62511;47.970;11.774;2024-02-28T00:14:21;11.93;;;5.78;;
74158;SDS011;62511;47.970;11.774;2024-02-28T00:16:47;12.35;;;6.50;;
74158;SDS011;62511;47.970;11.774;2024-02-28T00:19:14;15.52;;;7.38;;
74158;SDS011;62511;47.970;11.774;2024-02-28T00:21:40;13.98;;;6.88;;
74158;SDS011;62511;47.970;11.774;2024-02-28T00:24:07;11.52;;;6.45;;
74158;SDS011;62511;47.970;11.774;2024-02-28T00:26:33;14.05;;;6.25;;
74158;SDS011;62511;47.970;11.774;2024-02-28T00:28:59;12.88;;;7.25;;
74158;SDS011;62511;47.970;11.774;2024-02-28T00:31:25;18.00;;;6.38;;
74158;SDS011;62511;47.970;11.774;2024-02-28T00:33:52;12.07;;;6.40;;
74158;SDS011;62511;47.970;11.774;2024-02-28T00:36:18;13.13;;;6.63;;
74158;SDS011;62511;47.970;11.774;2024-02-28T00:38:44;14.88;;;6.85;;
74158;SDS011;62511;47.970;11.774;2024-02-28T00:41:10;15.65;;;6.93;;
74158;SDS011;62511;47.970;11.774;2024-02-28T00:43:36;11.85;;;6.38;;
74158;SDS011;62511;47.970;11.774;2024-02-28T00:46:03;13.32;;;6.68;;
74158;SDS011;62511;47.970;11.774;2024-02-28T00:48:29;12.68;;;6.75;;
74158;SDS011;62511;47.970;11.774;2024-02-28T00:50:55;12.77;;;6.45;;
74158;SDS011;62511;47.970;11.774;2024-02-28T00:53:22;12.38;;;5.78;;
74158;SDS011;62511;47.970;11.774;2024-02-28T00:55:48;10.77;;;5.63;;
74158;SDS011;62511;47.970;11.774;2024-02-28T00:58:16;12.55;;;6.57;;
74158;SDS011;62511;47.970;11.774;2024-02-28T01:00:42;15.65;;;7.43;;
74158;SDS011;62511;47.970;11.774;2024-02-28T01:03:08;14.38;;;7.25;;
74158;SDS011;62511;47.970;11.774;2024-02-28T01:05:36;12.85;;;6.30;;
74158;SDS011;62511;47.970;11.774;2024-02-28T01:08:02;12.70;;;6.70;;
74158;SDS011;62511;47.970;11.774;2024-02-28T01:10:29;16.25;;;6.85;;
74158;SDS011;62511;47.970;11.774;2024-02-28T01:12:55;12.27;;;7.68;;
74158;SDS011;62511;47.970;11.774;2024-02-28T01:15:21;12.75;;;6.82;;
74158;SDS011;62511;47.970;11.774;2024-02-28T01:17:48;13.75;;;6.38;;
74158;SDS011;62511;47.970;11.774;2024-02-28T01:20:14;11.93;;;7.15;;
74158;SDS011;62511;47.970;11.774;2024-02-28T01:22:40;12.55;;;7.13;;
74158;SDS011;62511;47.970;11.774;2024-02-28T01:25:12;16.35;;;6.90;;
74158;SDS011;62511;47.970;11.774;2024-02-28T01:27:39;12.73;;;7.15;;
74158;SDS011;62511;47.970;11.774;2024-02-28T01:30:05;14.55;;;7.63;;
74158;SDS011;62511;47.970;11.774;2024-02-28T01:32:32;13.52;;;6.80;;
74158;SDS011;62511;47.970;11.774;2024-02-28T01:34:59;15.80;;;7.30;;
74158;SDS011;62511;47.970;11.774;2024-02-28T01:37:25;15.20;;;7.22;;
74158;SDS011;62511;47.970;11.774;2024-02-28T01:39:51;18.63;;;7.57;;
74158;SDS011;62511;47.970;11.774;2024-02-28T01:42:17;14.85;;;7.15;;
74158;SDS011;62511;47.970;11.774;2024-02-28T01:44:44;13.95;;;7.70;;
74158;SDS011;62511;47.970;11.774;2024-02-28T01:47:11;17.58;;;8.30;;
74158;SDS011;62511;47.970;11.774;2024-02-28T01:49:38;13.38;;;6.75;;
74158;SDS011;62511;47.970;11.774;2024-02-28T01:54:31;13.50;;;5.90;;
74158;SDS011;62511;47.970;11.774;2024-02-28T01:57:00;13.57;;;7.15;;
74158;SDS011;62511;47.970;11.774;2024-02-28T01:59:26;16.38;;;7.45;;
74158;SDS011;62511;47.970;11.774;2024-02-28T02:01:54;15.43;;;7.28;;
74158;SDS011;62511;47.970;11.774;2024-02-28T02:04:20;12.23;;;5.72;;
74158;SDS011;62511;47.970;11.774;2024-02-28T02:06:46;17.55;;;8.02;;
74158;SDS011;62511;47.970;11.774;2024-02-28T02:09:13;16.35;;;7.10;;
74158;SDS011;62511;47.970;11.774;2024-02-28T02:11:39;14.88;;;7.28;;
74158;SDS011;62511;47.970;11.774;2024-02-28T02:14:05;14.20;;;6.72;;
74158;SDS011;62511;47.970;11.774;2024-02-28T02:16:31;13.75;;;6.97;;
74158;SDS011;62511;47.970;11.774;2024-02-28T02:18:58;15.07;;;7.82;;
74158;SDS011;62511;47.970;11.774;2024-02-28T02:21:26;15.60;;;7.18;;
74158;SDS011;62511;47.970;11.774;2024-02-28T02:23:55;16.95;;;8.00;;
74158;SDS011;62511;47.970;11.774;2024-02-28T02:26:21;14.18;;;7.10;;
74158;SDS011;62511;47.970;11.774;2024-02-28T02:28:47;14.77;;;6.30;;
74158;SDS011;62511;47.970;11.774;2024-02-28T02:31:14;19.23;;;7.18;;
74158;SDS011;62511;47.970;11.774;2024-02-28T02:33:40;12.95;;;6.75;;
74158;SDS011;62511;47.970;11.774;2024-02-28T02:36:06;14.60;;;7.03;;
74158;SDS011;62511;47.970;11.774;2024-02-28T02:38:32;15.98;;;7.57;;
74158;SDS011;62511;47.970;11.774;2024-02-28T02:40:59;13.88;;;7.05;;
74158;SDS011;62511;47.970;11.774;2024-02-28T02:43:25;14.52;;;7.53;;
74158;SDS011;62511;47.970;11.774;2024-02-28T02:45:51;17.15;;;6.68;;
74158;SDS011;62511;47.970;11.774;2024-02-28T02:48:18;15.30;;;6.78;;
74158;SDS011;62511;47.970;11.774;2024-02-28T02:50:44;11.95;;;5.97;;
74158;SDS011;62511;47.970;11.774;2024-02-28T02:53:10;11.98;;;6.35;;
74158;SDS011;62511;47.970;11.774;2024-02-28T02:55:36;11.93;;;6.40;;
74158;SDS011;62511;47.970;11.774;2024-02-28T02:58:03;14.75;;;7.25;;
74158;SDS011;62511;47.970;11.774;2024-02-28T03:00:29;12.05;;;6.38;;
74158;SDS011;62511;47.970;11.774;2024-02-28T03:02:55;14.18;;;6.78;;
74158;SDS011;62511;47.970;11.774;2024-02-28T03:05:21;11.35;;;5.95;;
74158;SDS011;62511;47.970;11.774;2024-02-28T03:07:48;12.20;;;6.80;;
74158;SDS011;62511;47.970;11.774;2024-02-28T03:10:14;11.30;;;5.93;;
74158;SDS011;62511;47.970;11.774;2024-02-28T03:12:41;12.68;;;6.38;;
74158;SDS011;62511;47.970;11.774;2024-02-28T03:15:07;12.50;;;6.57;;
74158;SDS011;62511;47.970;11.774;2024-02-28T03:17:33;14.68;;;5.88;;
74158;SDS011;62511;47.970;11.774;2024-02-28T03:19:59;16.13;;;7.53;;
74158;SDS011;62511;47.970;11.774;2024-02-28T03:22:25;14.10;;;6.15;;
74158;SDS011;62511;47.970;11.774;2024-02-28T03:24:51;13.57;;;6.90;;
74158;SDS011;62511;47.970;11.774;2024-02-28T03:27:18;12.45;;;6.28;;
74158;SDS011;62511;47.970;11.774;2024-02-28T03:29:44;12.35;;;5.57;;
74158;SDS011;62511;47.970;11.774;2024-02-28T03:32:10;13.65;;;6.53;;
74158;SDS011;62511;47.970;11.774;2024-02-28T03:34:36;13.77;;;6.03;;
74158;SDS011;62511;47.970;11.774;2024-02-28T03:37:02;14.68;;;5.97;;
74158;SDS011;62511;47.970;11.774;2024-02-28T03:39:29;15.23;;;6.97;;
74158;SDS011;62511;47.970;11.774;2024-02-28T03:41:55;15.93;;;6.50;;
74158;SDS011;62511;47.970;11.774;2024-02-28T03:44:21;13.55;;;6.68;;
74158;SDS011;62511;47.970;11.774;2024-02-28T03:46:49;16.00;;;7.03;;
74158;SDS011;62511;47.970;11.774;2024-02-28T03:49:15;12.68;;;6.57;;
74158;SDS011;62511;47.970;11.774;2024-02-28T03:51:42;14.48;;;7.18;;
74158;SDS011;62511;47.970;11.774;2024-02-28T03:54:08;16.63;;;7.88;;
74158;SDS011;62511;47.970;11.774;2024-02-28T03:56:35;14.50;;;6.55;;
74158;SDS011;62511;47.970;11.774;2024-02-28T03:59:01;9.50;;;5.57;;
74158;SDS011;62511;47.970;11.774;2024-02-28T04:03:55;12.43;;;6.25;;
74158;SDS011;62511;47.970;11.774;2024-02-28T04:06:21;16.20;;;7.30;;
74158;SDS011;62511;47.970;11.774;2024-02-28T04:08:47;15.40;;;7.13;;
74158;SDS011;62511;47.970;11.774;2024-02-28T04:11:13;16.42;;;6.93;;
74158;SDS011;62511;47.970;11.774;2024-02-28T04:13:39;14.15;;;7.35;;
74158;SDS011;62511;47.970;11.774;2024-02-28T04:16:07;16.00;;;7.20;;
74158;SDS011;62511;47.970;11.774;2024-02-28T04:20:59;15.80;;;6.97;;
74158;SDS011;62511;47.970;11.774;2024-02-28T04:23:25;14.23;;;7.10;;
74158;SDS011;62511;47.970;11.774;2024-02-28T04:25:52;20.88;;;8.18;;
74158;SDS011;62511;47.970;11.774;2024-02-28T04:28:18;13.00;;;6.80;;
74158;SDS011;62511;47.970;11.774;2024-02-28T04:30:44;13.48;;;7.22;;
74158;SDS011;62511;47.970;11.774;2024-02-28T04:33:10;14.85;;;6.63;;
74158;SDS011;62511;47.970;11.774;2024-02-28T04:35:38;15.65;;;7.25;;
74158;SDS011;62511;47.970;11.774;2024-02-28T04:38:04;13.45;;;6.78;;
74158;SDS011;62511;47.970;11.774;2024-02-28T04:40:30;18.08;;;7.80;;
74158;SDS011;62511;47.970;11.774;2024-02-28T04:42:56;15.82;;;6.72;;
74158;SDS011;62511;47.970;11.774;2024-02-28T04:45:23;13.40;;;6.07;;
74158;SDS011;62511;47.970;11.774;2024-02-28T04:47:49;12.93;;;6.28;;
74158;SDS011;62511;47.970;11.774;2024-02-28T04:50:17;14.40;;;6.30;;
74158;SDS011;62511;47.970;11.774;2024-02-28T04:52:43;16.77;;;9.57;;
74158;SDS011;62511;47.970;11.774;2024-02-28T04:55:10;18.08;;;7.53;;
74158;SDS011;62511;47.970;11.774;2024-02-28T04:57:36;14.52;;;7.45;;
74158;SDS011;62511;47.970;11.774;2024-02-28T05:00:03;14.18;;;6.63;;
74158;SDS011;62511;47.970;11.774;2024-02-28T05:02:29;17.55;;;7.80;;
74158;SDS011;62511;47.970;11.774;2024-02-28T05:04:55;11.82;;;6.85;;
74158;SDS011;62511;47.970;11.774;2024-02-28T05:09:49;16.00;;;7.68;;
74158;SDS011;62511;47.970;11.774;2024-02-28T05:12:16;18.23;;;8.45;;
74158;SDS011;62511;47.970;11.774;2024-02-28T05:14:42;21.73;;;8.57;;
74158;SDS011;62511;47.970;11.774;2024-02-28T05:17:08;14.85;;;6.75;;
74158;SDS011;62511;47.970;11.774;2024-02-28T05:19:35;18.08;;;7.68;;
74158;SDS011;62511;47.970;11.774;2024-02-28T05:22:01;13.20;;;6.82;;
74158;SDS011;62511;47.970;11.774;2024-02-28T05:24:28;14.88;;;7.45;;
74158;SDS011;62511;47.970;11.774;2024-02-28T05:26:54;11.25;;;5.88;;
74158;SDS011;62511;47.970;11.774;2024-02-28T05:29:20;15.35;;;6.78;;
74158;SDS011;62511;47.970;11.774;2024-02-28T05:31:46;16.02;;;7.95;;
74158;SDS011;62511;47.970;11.774;2024-02-28T05:34:12;16.75;;;7.05;;
74158;SDS011;62511;47.970;11.774;2024-02-28T05:36:40;20.45;;;8.35;;
74158;SDS011;62511;47.970;11.774;2024-02-28T05:39:07;21.08;;;8.13;;
74158;SDS011;62511;47.970;11.774;2024-02-28T05:41:33;21.33;;;8.95;;
74158;SDS011;62511;47.970;11.774;2024-02-28T05:43:59;21.75;;;9.23;;
74158;SDS011;62511;47.970;11.774;2024-02-28T05:46:26;22.48;;;8.45;;
74158;SDS011;62511;47.970;11.774;2024-02-28T05:48:52;24.15;;;8.85;;
74158;SDS011;62511;47.970;11.774;2024-02-28T05:51:19;21.17;;;9.15;;
74158;SDS011;62511;47.970;11.774;2024-02-28T05:53:45;21.52;;;9.00;;
74158;SDS011;62511;47.970;11.774;2024-02-28T05:56:11;20.20;;;9.15;;
74158;SDS011;62511;47.970;11.774;2024-02-28T05:58:44;16.33;;;7.90;;
74158;SDS011;62511;47.970;11.774;2024-02-28T06:01:12;19.08;;;8.38;;
74158;SDS011;62511;47.970;11.774;2024-02-28T06:03:38;17.33;;;8.38;;
74158;SDS011;62511;47.970;11.774;2024-02-28T06:06:04;23.35;;;10.45;;
74158;SDS011;62511;47.970;11.774;2024-02-28T06:08:34;19.33;;;8.68;;
74158;SDS011;62511;47.970;11.774;2024-02-28T06:11:00;22.90;;;10.57;;
74158;SDS011;62511;47.970;11.774;2024-02-28T06:13:27;19.92;;;8.85;;
74158;SDS011;62511;47.970;11.774;2024-02-28T06:15:54;25.35;;;11.48;;
74158;SDS011;62511;47.970;11.774;2024-02-28T06:18:21;22.50;;;9.07;;
74158;SDS011;62511;47.970;11.774;2024-02-28T06:20:52;22.45;;;10.23;;
74158;SDS011;62511;47.970;11.774;2024-02-28T06:25:45;20.05;;;8.63;;
74158;SDS011;62511;47.970;11.774;2024-02-28T06:28:11;24.98;;;9.02;;
74158;SDS011;62511;47.970;11.774;2024-02-28T06:30:37;25.60;;;10.57;;
74158;SDS011;62511;47.970;11.774;2024-02-28T06:33:03;24.50;;;10.45;;
74158;SDS011;62511;47.970;11.774;2024-02-28T06:35:30;27.52;;;10.57;;
74158;SDS011;62511;47.970;11.774;2024-02-28T06:37:56;22.52;;;10.02;;
74158;SDS011;62511;47.970;11.774;2024-02-28T06:40:23;23.85;;;10.52;;
74158;SDS011;62511;47.970;11.774;2024-02-28T06:42:49;24.15;;;10.38;;
74158;SDS011;62511;47.970;11.774;2024-02-28T06:45:16;28.70;;;9.60;;
74158;SDS011;62511;47.970;11.774;2024-02-28T06:47:42;26.48;;;11.73;;
74158;SDS011;62511;47.970;11.774;2024-02-28T06:52:37;21.58;;;8.95;;
74158;SDS011;62511;47.970;11.774;2024-02-28T06:55:03;24.13;;;10.02;;
74158;SDS011;62511;47.970;11.774;2024-02-28T06:57:35;23.35;;;9.48;;
74158;SDS011;62511;47.970;11.774;2024-02-28T07:00:01;24.10;;;11.07;;
74158;SDS011;62511;47.970;11.774;2024-02-28T07:02:27;27.70;;;12.68;;
74158;SDS011;62511;47.970;11.774;2024-02-28T07:04:54;23.70;;;8.77;;
74158;SDS011;62511;47.970;11.774;2024-02-28T07:07:20;21.17;;;10.40;;
74158;SDS011;62511;47.970;11.774;2024-02-28T07:09:46;27.73;;;12.13;;
74158;SDS011;62511;47.970;11.774;2024-02-28T07:12:12;25.60;;;10.48;;
74158;SDS011;62511;47.970;11.774;2024-02-28T07:14:38;29.45;;;11.65;;
74158;SDS011;62511;47.970;11.774;2024-02-28T07:17:04;26.52;;;10.63;;
74158;SDS011;62511;47.970;11.774;2024-02-28T07:19:33;22.40;;;9.55;;
74158;SDS011;62511;47.970;11.774;2024-02-28T07:21:59;24.25;;;10.27;;
74158;SDS011;62511;47.970;11.774;2024-02-28T07:24:25;23.42;;;9.52;;
74158;SDS011;62511;47.970;11.774;2024-02-28T07:26:52;26.13;;;11.73;;
74158;SDS011;62511;47.970;11.774;2024-02-28T07:29:18;26.23;;;11.05;;
74158;SDS011;62511;47.970;11.774;2024-02-28T07:31:44;25.92;;;10.80;;
74158;SDS011;62511;47.970;11.774;2024-02-28T07:34:11;28.58;;;10.63;;
74158;SDS011;62511;47.970;11.774;2024-02-28T07:36:37;26.48;;;11.27;;
74158;SDS011;62511;47.970;11.774;2024-02-28T07:39:03;21.98;;;9.63;;
74158;SDS011;62511;47.970;11.774;2024-02-28T07:41:29;31.38;;;11.82;;
74158;SDS011;62511;47.970;11.774;2024-02-28T07:43:55;30.42;;;12.75;;
74158;SDS011;62511;47.970;11.774;2024-02-28T07:46:22;93.63;;;30.40;;
74158;SDS011;62511;47.970;11.774;2024-02-28T07:48:48;48.70;;;20.10;;
74158;SDS011;62511;47.970;11.774;2024-02-28T07:51:14;27.50;;;11.73;;
74158;SDS011;62511;47.970;11.774;2024-02-28T07:53:40;31.55;;;13.32;;
74158;SDS011;62511;47.970;11.774;2024-02-28T07:56:07;28.42;;;12.68;;
74158;SDS011;62511;47.970;11.774;2024-02-28T07:58:40;26.33;;;10.77;;
74158;SDS011;62511;47.970;11.774;2024-02-28T08:01:07;30.52;;;11.45;;
74158;SDS011;62511;47.970;11.774;2024-02-28T08:03:33;29.58;;;11.57;;
74158;SDS011;62511;47.970;11.774;2024-02-28T08:05:59;27.50;;;11.32;;
74158;SDS011;62511;47.970;11.774;2024-02-28T08:08:25;25.98;;;10.65;;
74158;SDS011;62511;47.970;11.774;2024-02-28T08:10:51;44.13;;;20.60;;
74158;SDS011;62511;47.970;11.774;2024-02-28T08:13:18;26.30;;;11.40;;
74158;SDS011;62511;47.970;11.774;2024-02-28T08:15:44;28.73;;;13.10;;
74158;SDS011;62511;47.970;11.774;2024-02-28T08:18:11;31.33;;;12.27;;
74158;SDS011;62511;47.970;11.774;2024-02-28T08:20:38;31.00;;;13.43;;
74158;SDS011;62511;47.970;11.774;2024-02-28T08:23:04;35.25;;;13.80;;
74158;SDS011;62511;47.970;11.774;2024-02-28T08:25:30;28.40;;;12.60;;
74158;SDS011;62511;47.970;11.774;2024-02-28T08:27:56;28.00;;;11.93;;
74158;SDS011;62511;47.970;11.774;2024-02-28T08:30:23;27.02;;;11.65;;
74158;SDS011;62511;47.970;11.774;2024-02-28T08:32:49;27.95;;;11.73;;
74158;SDS011;62511;47.970;11.774;2024-02-28T08:35:16;30.73;;;12.90;;
74158;SDS011;62511;47.970;11.774;2024-02-28T08:37:43;27.95;;;12.10;;
74158;SDS011;62511;47.970;11.774;2024-02-28T08:40:09;28.10;;;11.32;;
74158;SDS011;62511;47.970;11.774;2024-02-28T08:42:36;27.88;;;12.00;;
74158;SDS011;62511;47.970;11.774;2024-02-28T08:45:02;27.55;;;11.38;;
74158;SDS011;62511;47.970;11.774;2024-02-28T08:47:29;27.02;;;10.90;;
74158;SDS011;62511;47.970;11.774;2024-02-28T08:49:55;31.73;;;12.68;;
74158;SDS011;62511;47.970;11.774;2024-02-28T08:52:21;28.65;;;12.07;;
74158;SDS011;62511;47.970;11.774;2024-02-28T08:54:48;26.55;;;11.35;;
74158;SDS011;62511;47.970;11.774;2024-02-28T08:57:14;31.75;;;13.30;;
74158;SDS011;62511;47.970;11.774;2024-02-28T08:59:41;27.90;;;12.32;;
74158;SDS011;62511;47.970;11.774;2024-02-28T09:02:07;27.25;;;11.40;;
74158;SDS011;62511;47.970;11.774;2024-02-28T09:04:33;31.40;;;13.82;;
74158;SDS011;62511;47.970;11.774;2024-02-28T09:07:00;32.40;;;12.25;;
74158;SDS011;62511;47.970;11.774;2024-02-28T09:09:26;29.25;;;13.55;;
74158;SDS011;62511;47.970;11.774;2024-02-28T09:11:59;32.97;;;11.73;;
74158;SDS011;62511;47.970;11.774;2024-02-28T09:14:25;32.30;;;13.05;;
74158;SDS011;62511;47.970;11.774;2024-02-28T09:16:51;35.05;;;14.35;;
74158;SDS011;62511;47.970;11.774;2024-02-28T09:19:18;29.70;;;11.48;;
74158;SDS011;62511;47.970;11.774;2024-02-28T09:21:44;25.33;;;10.18;;
74158;SDS011;62511;47.970;11.774;2024-02-28T09:24:13;31.45;;;11.85;;
74158;SDS011;62511;47.970;11.774;2024-02-28T09:26:39;28.50;;;11.80;;
74158;SDS011;62511;47.970;11.774;2024-02-28T09:29:05;30.52;;;11.63;;
74158;SDS011;62511;47.970;11.774;2024-02-28T09:31:31;30.90;;;12.65;;
74158;SDS011;62511;47.970;11.774;2024-02-28T09:33:57;31.85;;;13.48;;
74158;SDS011;62511;47.970;11.774;2024-02-28T09:36:24;32.35;;;13.05;;
74158;SDS011;62511;47.970;11.774;2024-02-28T09:38:50;27.73;;;11.23;;
74158;SDS011;62511;47.970;11.774;2024-02-28T09:41:16;28.45;;;11.68;;
74158;SDS011;62511;47.970;11.774;2024-02-28T09:43:43;29.75;;;10.43;;
74158;SDS011;62511;47.970;11.774;2024-02-28T09:46:10;32.88;;;12.65;;
74158;SDS011;62511;47.970;11.774;2024-02-28T09:48:41;31.15;;;12.23;;
74158;SDS011;62511;47.970;11.774;2024-02-28T09:51:11;25.13;;;10.38;;
74158;SDS011;62511;47.970;11.774;2024-02-28T09:53:38;25.77;;;11.45;;
74158;SDS011;62511;47.970;11.774;2024-02-28T09:56:05;32.42;;;12.75;;
74158;SDS011;62511;47.970;11.774;2024-02-28T09:58:32;25.52;;;11.85;;
74158;SDS011;62511;47.970;11.774;2024-02-28T10:01:01;33.83;;;13.10;;
74158;SDS011;62511;47.970;11.774;2024-02-28T10:03:31;28.15;;;10.82;;
74158;SDS011;62511;47.970;11.774;2024-02-28T10:05:57;28.40;;;11.15;;
74158;SDS011;62511;47.970;11.774;2024-02-28T10:08:23;27.73;;;10.93;;
74158;SDS011;62511;47.970;11.774;2024-02-28T10:10:51;25.98;;;11.25;;
74158;SDS011;62511;47.970;11.774;2024-02-28T10:13:20;28.33;;;12.63;;
74158;SDS011;62511;47.970;11.774;2024-02-28T10:15:50;30.90;;;11.75;;
74158;SDS011;62511;47.970;11.774;2024-02-28T10:18:16;32.65;;;13.52;;
74158;SDS011;62511;47.970;11.774;2024-02-28T10:20:42;33.80;;;13.07;;
74158;SDS011;62511;47.970;11.774;2024-02-28T10:23:08;33.20;;;13.15;;
74158;SDS011;62511;47.970;11.774;2024-02-28T10:25:47;29.70;;;12.15;;
74158;SDS011;62511;47.970;11.774;2024-02-28T10:28:13;26.02;;;10.75;;
74158;SDS011;62511;47.970;11.774;2024-02-28T10:30:41;28.15;;;10.70;;
74158;SDS011;62511;47.970;11.774;2024-02-28T10:33:14;28.60;;;12.02;;
74158;SDS011;62511;47.970;11.774;2024-02-28T10:35:43;26.67;;;10.77;;
74158;SDS011;62511;47.970;11.774;2024-02-28T10:38:10;29.17;;;11.35;;
74158;SDS011;62511;47.970;11.774;2024-02-28T10:40:36;28.05;;;11.77;;
74158;SDS011;62511;47.970;11.774;2024-02-28T10:43:03;30.05;;;12.05;;
74158;SDS011;62511;47.970;11.774;2024-02-28T10:45:32;27.30;;;10.82;;
74158;SDS011;62511;47.970;11.774;2024-02-28T10:48:01;23.45;;;10.73;;
74158;SDS011;62511;47.970;11.774;2024-02-28T10:50:28;26.30;;;10.52;;
74158;SDS011;62511;47.970;11.774;2024-02-28T10:52:54;24.95;;;10.82;;
74158;SDS011;62511;47.970;11.774;2024-02-28T10:55:22;20.52;;;8.40;;
74158;SDS011;62511;47.970;11.774;2024-02-28T10:57:50;22.17;;;9.68;;
74158;SDS011;62511;47.970;11.774;2024-02-28T11:00:21;23.45;;;9.73;;
74158;SDS011;62511;47.970;11.774;2024-02-28T11:02:47;27.25;;;9.23;;
74158;SDS011;62511;47.970;11.774;2024-02-28T11:05:14;26.90;;;10.25;;
74158;SDS011;62511;47.970;11.774;2024-02-28T11:07:41;26.88;;;10.85;;
74158;SDS011;62511;47.970;11.774;2024-02-28T11:10:08;23.23;;;10.75;;
74158;SDS011;62511;47.970;11.774;2024-02-28T11:12:35;23.92;;;8.95;;
74158;SDS011;62511;47.970;11.774;2024-02-28T11:15:03;24.45;;;9.27;;
74158;SDS011;62511;47.970;11.774;2024-02-28T11:17:34;26.23;;;10.63;;
74158;SDS011;62511;47.970;11.774;2024-02-28T11:20:10;26.02;;;10.27;;
74158;SDS011;62511;47.970;11.774;2024-02-28T11:22:37;34.45;;;12.05;;
74158;SDS011;62511;47.970;11.774;2024-02-28T11:25:03;27.27;;;11.30;;
74158;SDS011;62511;47.970;11.774;2024-02-28T11:27:31;27.83;;;12.15;;
74158;SDS011;62511;47.970;11.774;2024-02-28T11:29:57;28.05;;;10.93;;
74158;SDS011;62511;47.970;11.774;2024-02-28T11:32:26;28.67;;;11.45;;
74158;SDS011;62511;47.970;11.774;2024-02-28T11:34:52;25.63;;;10.20;;
74158;SDS011;62511;47.970;11.774;2024-02-28T11:37:18;28.45;;;10.48;;
74158;SDS011;62511;47.970;11.774;2024-02-28T11:39:48;27.33;;;11.50;;
74158;SDS011;62511;47.970;11.774;2024-02-28T11:42:15;31.15;;;11.40;;
74158;SDS011;62511;47.970;11.774;2024-02-28T11:44:41;28.45;;;11.10;;
74158;SDS011;62511;47.970;11.774;2024-02-28T11:47:09;27.98;;;11.65;;
74158;SDS011;62511;47.970;11.774;2024-02-28T11:49:36;29.02;;;11.80;;
74158;SDS011;62511;47.970;11.774;2024-02-28T11:52:02;31.10;;;12.23;;
74158;SDS011;62511;47.970;11.774;2024-02-28T11:54:29;22.45;;;8.88;;
74158;SDS011;62511;47.970;11.774;2024-02-28T11:56:55;32.10;;;12.18;;
74158;SDS011;62511;47.970;11.774;2024-02-28T11:59:22;30.00;;;11.57;;
74158;SDS011;62511;47.970;11.774;2024-02-28T12:01:48;28.23;;;12.20;;
74158;SDS011;62511;47.970;11.774;2024-02-28T12:04:16;31.73;;;13.70;;
74158;SDS011;62511;47.970;11.774;2024-02-28T12:06:42;28.85;;;11.55;;
74158;SDS011;62511;47.970;11.774;2024-02-28T12:09:10;32.33;;;13.27;;
74158;SDS011;62511;47.970;11.774;2024-02-28T12:11:39;38.75;;;12.15;;
74158;SDS011;62511;47.970;11.774;2024-02-28T12:14:08;32.65;;;12.18;;
74158;SDS011;62511;47.970;11.774;2024-02-28T12:16:40;34.28;;;11.55;;
74158;SDS011;62511;47.970;11.774;2024-02-28T12:19:10;31.08;;;11.98;;
74158;SDS011;62511;47.970;11.774;2024-02-28T12:21:39;27.08;;;10.77;;
74158;SDS011;62511;47.970;11.774;2024-02-28T12:24:09;32.78;;;10.75;;
74158;SDS011;62511;47.970;11.774;2024-02-28T12:26:36;33.22;;;14.40;;
74158;SDS011;62511;47.970;11.774;2024-02-28T12:29:03;26.92;;;10.70;;
74158;SDS011;62511;47.970;11.774;2024-02-28T12:31:29;28.08;;;11.25;;
74158;SDS011;62511;47.970;11.774;2024-02-28T12:33:55;29.23;;;11.73;;
74158;SDS011;62511;47.970;11.774;2024-02-28T12:36:21;29.52;;;11.60;;
74158;SDS011;62511;47.970;11.774;2024-02-28T12:38:47;26.40;;;10.05;;
74158;SDS011;62511;47.970;11.774;2024-02-28T12:41:13;25.10;;;10.27;;
74158;SDS011;62511;47.970;11.774;2024-02-28T12:43:41;23.30;;;10.35;;
74158;SDS011;62511;47.970;11.774;2024-02-28T12:46:08;29.55;;;13.77;;
74158;SDS011;62511;47.970;11.774;2024-02-28T12:48:37;30.08;;;12.98;;
74158;SDS011;62511;47.970;11.774;2024-02-28T12:51:04;32.80;;;13.73;;
74158;SDS011;62511;47.970;11.774;2024-02-28T12:53:31;31.40;;;13.85;;
74158;SDS011;62511;47.970;11.774;2024-02-28T12:55:57;30.50;;;11.85;;
74158;SDS011;62511;47.970;11.774;2024-02-28T12:58:24;34.17;;;13.25;;
74158;SDS011;62511;47.970;11.774;2024-02-28T13:00:50;27.83;;;11.82;;
74158;SDS011;62511;47.970;11.774;2024-02-28T13:03:17;37.28;;;12.32;;
74158;SDS011;62511;47.970;11.774;2024-02-28T13:05:44;38.05;;;13.77;;
74158;SDS011;62511;47.970;11.774;2024-02-28T13:08:11;29.58;;;12.30;;
74158;SDS011;62511;47.970;11.774;2024-02-28T13:10:37;25.30;;;10.63;;
74158;SDS011;62511;47.970;11.774;2024-02-28T13:13:06;29.35;;;13.10;;
74158;SDS011;62511;47.970;11.774;2024-02-28T13:15:33;30.50;;;12.27;;
74158;SDS011;62511;47.970;11.774;2024-02-28T13:17:59;34.03;;;12.10;;
74158;SDS011;62511;47.970;11.774;2024-02-28T13:20:27;37.88;;;14.05;;
74158;SDS011;62511;47.970;11.774;2024-02-28T13:22:53;33.63;;;13.80;;
74158;SDS011;62511;47.970;11.774;2024-02-28T13:25:19;34.15;;;11.60;;
74158;SDS011;62511;47.970;11.774;2024-02-28T13:27:45;30.67;;;12.05;;
74158;SDS011;62511;47.970;11.774;2024-02-28T13:30:12;32.75;;;15.10;;
74158;SDS011;62511;47.970;11.774;2024-02-28T13:32:39;29.40;;;12.32;;
74158;SDS011;62511;47.970;11.774;2024-02-28T13:35:06;36.05;;;13.30;;
74158;SDS011;62511;47.970;11.774;2024-02-28T13:37:33;38.15;;;15.48;;
74158;SDS011;62511;47.970;11.774;2024-02-28T13:40:00;36.85;;;13.75;;
74158;SDS011;62511;47.970;11.774;2024-02-28T13:42:26;36.78;;;15.00;;
74158;SDS011;62511;47.970;11.774;2024-02-28T13:44:52;37.60;;;15.15;;
74158;SDS011;62511;47.970;11.774;2024-02-28T13:47:18;34.17;;;13.45;;
74158;SDS011;62511;47.970;11.774;2024-02-28T13:49:44;39.35;;;14.45;;
74158;SDS011;62511;47.970;11.774;2024-02-28T13:52:11;41.13;;;13.63;;
74158;SDS011;62511;47.970;11.774;2024-02-28T13:54:37;35.05;;;12.80;;
74158;SDS011;62511;47.970;11.774;2024-02-28T13:57:04;29.73;;;11.25;;
74158;SDS011;62511;47.970;11.774;2024-02-28T13:59:30;32.92;;;12.50;;
74158;SDS011;62511;47.970;11.774;2024-02-28T14:01:57;33.38;;;13.32;;
74158;SDS011;62511;47.970;11.774;2024-02-28T14:04:25;33.83;;;13.15;;
74158;SDS011;62511;47.970;11.774;2024-02-28T14:06:51;32.38;;;12.70;;
74158;SDS011;62511;47.970;11.774;2024-02-28T14:09:17;33.50;;;13.20;;
74158;SDS011;62511;47.970;11.774;2024-02-28T14:11:43;34.38;;;14.27;;
74158;SDS011;62511;47.970;11.774;2024-02-28T14:14:10;30.38;;;12.50;;
74158;SDS011;62511;47.970;11.774;2024-02-28T14:16:40;27.65;;;11.88;;
74158;SDS011;62511;47.970;11.774;2024-02-28T14:19:07;33.63;;;13.07;;
74158;SDS011;62511;47.970;11.774;2024-02-28T14:21:33;32.00;;;12.43;;
74158;SDS011;62511;47.970;11.774;2024-02-28T14:23:59;32.97;;;11.48;;
74158;SDS011;62511;47.970;11.774;2024-02-28T14:26:25;32.75;;;12.10;;
74158;SDS011;62511;47.970;11.774;2024-02-28T14:28:52;33.97;;;12.93;;